San Juan, Peru
Current Conditions -  °F | °C
As of 3:00 AM on Tuesday 27 Jan 2015 (Local Time) from SPSO Reporting Station
Broken Clouds Broken Clouds  
Wind Chill: 70°   Ceiling: 3200
Heat Index: 70°   Visibility: 6mi
Dew Point: 66°   Wind: 6mph
Humidity: 88%   Direction: 210°SSW
Pressure: 29.88"   Gusts: NA
Location:  15.36°S, 75.14°W
Report Text: SPSO 270800Z 21005KT 9999 BKN032 21/19 Q1012 RMK PP000
Loading
Personal Weather Stations






























Interactive Weather Map New forecast layout! Learn more

10-Day Weather Forecast

Advertisements
Track Severe Weather on mobile